Loiza, Puerto Rico
Current Conditions -  °F | °C
As of 1:53 AM on Monday 22 Dec 2014 (Local Time) from TJNR Reporting Station
Few Clouds Few Clouds  
Wind Chill: 74°   Ceiling: Unl
Heat Index: 74°   Visibility: 10mi
Dew Point: 68°   Wind: 3mph
Humidity: 82%   Direction: 350°N
Pressure: 30.06"   Gusts: NA
Location:  18.2°N, 65.86°W
Report Text: TJNR 220553Z AUTO 35003KT 10SM FEW027 23/20 A3006 RMK AO2 SLP180 T02330200 10256 20233 58013 $
Loading
Personal Weather Stations






























Interactive Weather Map New forecast layout! Learn more

10-Day Weather Forecast

Advertisements
Track Severe Weather on mobile